createdAt,value
2018-05-21T00:01:53.463Z,64.29
2018-05-21T00:04:21.002Z,64.41
2018-05-21T00:06:48.515Z,64.38
2018-05-21T00:09:16.139Z,64.45
2018-05-21T00:11:44.555Z,64.50
2018-05-21T00:14:14.999Z,64.54
2018-05-21T00:16:45.192Z,64.59
2018-05-21T00:19:14.205Z,64.66
2018-05-21T00:21:41.779Z,64.78
2018-05-21T00:24:09.320Z,64.94
2018-05-21T00:26:36.867Z,64.92
2018-05-21T00:29:05.702Z,65.00
2018-05-21T00:31:36.550Z,65.10
2018-05-21T00:34:04.687Z,65.19
2018-05-21T00:36:33.159Z,65.27
2018-05-21T00:39:00.699Z,65.26
2018-05-21T00:41:28.223Z,65.29
2018-05-21T00:43:55.734Z,65.34
2018-05-21T00:46:24.641Z,65.33
2018-05-21T00:48:53.139Z,65.34
2018-05-21T00:51:24.457Z,65.35
2018-05-21T00:53:54.640Z,65.33
2018-05-21T00:56:23.363Z,65.40
2018-05-21T00:58:50.871Z,65.49
2018-05-21T01:01:18.392Z,65.43
2018-05-21T01:03:45.951Z,65.33
2018-05-21T01:06:14.474Z,65.43
2018-05-21T01:08:42.263Z,65.53
2018-05-21T01:11:12.315Z,65.59
2018-05-21T01:13:39.833Z,65.68
2018-05-21T01:16:07.355Z,65.70
2018-05-21T01:18:34.896Z,65.70
2018-05-21T01:21:02.459Z,65.70
2018-05-21T01:23:30.855Z,65.80
2018-05-21T01:25:58.707Z,65.77
2018-05-21T01:28:26.533Z,65.80
2018-05-21T01:30:54.328Z,65.82
2018-05-21T01:33:21.889Z,65.83
2018-05-21T01:35:49.423Z,65.89
2018-05-21T01:38:17.100Z,65.92
2018-05-21T01:40:44.804Z,65.93
2018-05-21T01:43:12.644Z,65.98
2018-05-21T01:45:40.600Z,66.00
2018-05-21T01:48:09.183Z,66.00
2018-05-21T01:50:36.715Z,65.94
2018-05-21T01:53:04.265Z,65.93
2018-05-21T01:55:31.793Z,65.99
2018-05-21T01:57:59.467Z,65.99
2018-05-21T02:00:28.415Z,66.03
2018-05-21T02:02:56.653Z,66.13
2018-05-21T02:05:24.528Z,66.05
2018-05-21T02:07:52.075Z,66.00
2018-05-21T02:10:19.606Z,66.04
2018-05-21T02:12:47.235Z,66.01
2018-05-21T02:15:14.904Z,66.13
2018-05-21T02:17:42.626Z,66.27
2018-05-21T02:20:10.654Z,66.37
2018-05-21T02:22:39.049Z,66.37
2018-05-21T02:25:06.683Z,66.32
2018-05-21T02:27:34.195Z,66.29
2018-05-21T02:30:01.742Z,66.30
2018-05-21T02:32:29.459Z,66.38
2018-05-21T02:34:57.363Z,66.38
2018-05-21T02:37:25.973Z,66.38
2018-05-21T02:39:53.713Z,66.40
2018-05-21T02:42:21.328Z,66.49
2018-05-21T02:44:48.857Z,66.55
2018-05-21T02:47:16.435Z,66.72
2018-05-21T02:49:44.095Z,66.79
2018-05-21T02:52:12.667Z,66.79
2018-05-21T02:54:40.525Z,66.72
2018-05-21T02:57:09.229Z,66.67
2018-05-21T02:59:36.804Z,66.56
2018-05-21T03:02:04.359Z,66.53
2018-05-21T03:04:31.935Z,66.53
2018-05-21T03:06:59.623Z,66.59
2018-05-21T03:09:29.534Z,66.55
2018-05-21T03:11:58.406Z,66.56
2018-05-21T03:14:26.100Z,66.56
2018-05-21T03:16:53.792Z,66.61
2018-05-21T03:19:21.348Z,66.61
2018-05-21T03:21:48.898Z,66.68
2018-05-21T03:24:16.465Z,66.64
2018-05-21T03:26:46.377Z,66.64
2018-05-21T03:29:14.074Z,66.62
2018-05-21T03:31:44.788Z,66.68
2018-05-21T03:34:12.859Z,66.67
2018-05-21T03:36:40.371Z,66.61
2018-05-21T03:39:07.915Z,66.63
2018-05-21T03:41:35.727Z,66.52
2018-05-21T03:44:03.452Z,66.50
2018-05-21T03:46:31.618Z,66.49
2018-05-21T03:51:30.872Z,66.45
2018-05-21T03:53:58.491Z,66.36
2018-05-21T03:56:26.010Z,66.34
2018-05-21T03:59:05.358Z,66.33
2018-05-21T04:01:46.493Z,66.28
2018-05-21T04:04:16.781Z,66.30
2018-05-21T04:06:44.651Z,66.30
2018-05-21T04:09:12.178Z,66.35
2018-05-21T04:11:39.783Z,66.41
2018-05-21T04:14:07.402Z,66.38
2018-05-21T04:16:35.059Z,66.46
2018-05-21T04:19:02.855Z,66.47
2018-05-21T04:21:30.620Z,66.44
2018-05-21T04:23:59.206Z,66.42
2018-05-21T04:26:26.839Z,66.43
2018-05-21T04:28:54.387Z,66.47
2018-05-21T04:31:21.881Z,66.47
2018-05-21T04:33:49.418Z,66.42
2018-05-21T04:36:17.713Z,66.41
2018-05-21T04:38:46.198Z,66.50
2018-05-21T04:41:15.000Z,66.55
2018-05-21T04:43:42.711Z,66.64
2018-05-21T04:46:10.366Z,66.75
2018-05-21T04:48:37.901Z,66.83
2018-05-21T04:51:05.507Z,66.89
2018-05-21T04:53:34.025Z,66.90
2018-05-21T04:56:02.192Z,66.86
2018-05-21T04:58:30.692Z,66.89
2018-05-21T05:01:01.399Z,66.88
2018-05-21T05:03:28.975Z,66.93
2018-05-21T05:05:56.495Z,66.94
2018-05-21T05:08:24.259Z,67.03
2018-05-21T05:10:54.213Z,67.08
2018-05-21T05:13:26.547Z,67.16
2018-05-21T05:15:54.180Z,67.22
2018-05-21T05:18:22.410Z,67.28
2018-05-21T05:20:49.981Z,67.32
2018-05-21T05:23:18.560Z,67.40
2018-05-21T05:25:46.120Z,67.52
2018-05-21T05:28:20.878Z,67.58
2018-05-21T05:30:50.020Z,67.64
2018-05-21T05:33:18.645Z,67.71
2018-05-21T05:35:50.205Z,67.79
2018-05-21T05:38:17.741Z,67.89
2018-05-21T05:40:45.285Z,67.91
2018-05-21T05:43:12.792Z,67.99
2018-05-21T05:45:40.459Z,68.09
2018-05-21T05:48:08.753Z,68.22
2018-05-21T05:50:37.722Z,68.36
2018-05-21T05:53:06.441Z,68.46
2018-05-21T05:55:33.975Z,68.52
2018-05-21T05:58:01.551Z,68.59
2018-05-21T06:00:29.155Z,68.65
2018-05-21T06:02:56.943Z,68.69
2018-05-21T06:08:29.040Z,68.67
2018-05-21T06:11:01.592Z,68.73
2018-05-21T06:13:29.239Z,68.79
2018-05-21T06:15:56.771Z,68.95
2018-05-21T06:18:24.339Z,68.94
2018-05-21T06:23:54.868Z,68.62
2018-05-21T06:26:27.713Z,68.42
2018-05-21T06:28:57.639Z,68.38
2018-05-21T06:31:25.243Z,68.31
2018-05-21T06:33:52.802Z,68.30
2018-05-21T06:36:20.326Z,68.22
2018-05-21T06:38:50.402Z,68.25
2018-05-21T06:41:18.574Z,68.19
2018-05-21T06:43:48.613Z,68.16
2018-05-21T06:46:16.630Z,68.06
2018-05-21T06:48:44.138Z,68.00
2018-05-21T06:51:11.642Z,67.97
2018-05-21T06:53:39.142Z,67.94
2018-05-21T06:56:09.392Z,67.88
2018-05-21T06:58:38.309Z,67.91
2018-05-21T07:01:06.868Z,67.97
2018-05-21T07:03:40.930Z,67.97
2018-05-21T07:06:08.462Z,67.95
2018-05-21T07:08:35.942Z,67.98
2018-05-21T07:11:03.493Z,68.02
2018-05-21T07:16:30.676Z,68.01
2018-05-21T07:19:02.872Z,68.04
2018-05-21T07:21:31.595Z,68.09
2018-05-21T07:23:59.115Z,68.11
2018-05-21T07:26:26.649Z,68.16
2018-05-21T07:28:54.292Z,68.19
2018-05-21T07:31:22.400Z,68.24
2018-05-21T07:33:50.043Z,68.27
2018-05-21T07:36:18.146Z,68.26
2018-05-21T07:38:45.717Z,68.27
2018-05-21T07:41:13.176Z,68.25
2018-05-21T07:43:40.690Z,68.19
2018-05-21T07:46:08.383Z,68.20
2018-05-21T07:51:35.624Z,68.19
2018-05-21T07:54:03.316Z,68.15
2018-05-21T07:56:30.919Z,68.17
2018-05-21T07:58:58.511Z,68.11
2018-05-21T08:01:26.042Z,68.02
2018-05-21T08:03:53.731Z,68.01
2018-05-21T08:06:22.056Z,67.96
2018-05-21T08:08:50.607Z,67.97
2018-05-21T08:11:26.121Z,67.87
2018-05-21T08:13:53.667Z,67.86
2018-05-21T08:16:21.193Z,67.78
2018-05-21T08:18:48.747Z,67.75
2018-05-21T08:21:16.328Z,67.72
2018-05-21T08:27:16.851Z,67.64
2018-05-21T08:29:44.657Z,67.64
2018-05-21T08:32:12.231Z,67.63
2018-05-21T08:34:39.793Z,67.59
2018-05-21T08:37:07.271Z,67.58
2018-05-21T08:39:42.083Z,67.56
2018-05-21T08:42:10.697Z,67.51
2018-05-21T08:44:38.361Z,67.47
2018-05-21T08:47:06.667Z,67.39
2018-05-21T08:49:34.146Z,67.37
2018-05-21T08:54:55.512Z,67.24
2018-05-21T08:57:23.149Z,67.11
2018-05-21T08:59:50.765Z,67.05
2018-05-21T09:02:18.446Z,67.16
2018-05-21T09:04:46.121Z,67.01
2018-05-21T09:07:13.628Z,66.94
2018-05-21T09:09:41.178Z,66.96
2018-05-21T09:12:08.731Z,66.83
2018-05-21T09:14:36.371Z,66.76
2018-05-21T09:17:07.160Z,66.88
2018-05-21T09:19:34.766Z,66.77
2018-05-21T09:22:02.399Z,66.62
2018-05-21T09:24:29.911Z,66.63
2018-05-21T09:26:57.471Z,66.50
2018-05-21T09:29:25.072Z,66.31
2018-05-21T09:31:57.232Z,66.15
2018-05-21T09:37:36.748Z,66.20
2018-05-21T09:40:04.283Z,66.11
2018-05-21T09:42:31.787Z,65.94
2018-05-21T09:44:59.331Z,65.77
2018-05-21T09:47:26.898Z,65.61
2018-05-21T09:49:54.559Z,65.43
2018-05-21T09:52:24.545Z,65.25
2018-05-21T09:54:52.964Z,65.25
2018-05-21T09:57:20.748Z,65.33
2018-05-21T09:59:48.291Z,65.23
2018-05-21T10:02:15.812Z,65.26
2018-05-21T10:04:43.363Z,65.32
2018-05-21T10:07:12.831Z,65.01
2018-05-21T10:09:40.669Z,65.04
2018-05-21T10:12:08.824Z,65.30
2018-05-21T10:14:36.531Z,65.13
2018-05-21T10:19:35.881Z,64.34
2018-05-21T10:22:03.411Z,64.08
2018-05-21T10:24:30.961Z,63.79
2018-05-21T10:26:58.595Z,63.43
2018-05-21T10:29:26.231Z,62.14
2018-05-21T10:31:59.490Z,61.30
2018-05-21T10:34:27.170Z,61.08
2018-05-21T10:36:54.860Z,59.88
2018-05-21T10:39:22.441Z,59.62
2018-05-21T10:41:49.963Z,58.93
2018-05-21T10:44:17.516Z,58.71
2018-05-21T10:46:45.071Z,58.48
2018-05-21T10:49:13.907Z,57.87
2018-05-21T10:51:42.104Z,57.85
2018-05-21T10:54:10.770Z,58.98
2018-05-21T10:56:38.468Z,59.15
2018-05-21T10:59:05.997Z,58.75
2018-05-21T11:01:33.566Z,57.83
2018-05-21T11:04:01.431Z,57.70
2018-05-21T11:06:29.038Z,57.63
2018-05-21T11:08:57.621Z,57.19
2018-05-21T11:11:27.311Z,56.03
2018-05-21T11:13:57.728Z,55.64
2018-05-21T11:16:25.255Z,55.68
2018-05-21T11:18:52.768Z,56.21
2018-05-21T11:21:20.314Z,56.48
2018-05-21T11:23:48.155Z,56.21
2018-05-21T11:26:19.917Z,56.47
2018-05-21T11:28:49.440Z,56.45
2018-05-21T11:34:01.503Z,55.54
2018-05-21T11:36:29.137Z,55.19
2018-05-21T11:38:56.715Z,54.69
2018-05-21T11:41:24.251Z,52.11
2018-05-21T11:43:51.842Z,49.90
2018-05-21T11:46:20.186Z,48.87
2018-05-21T11:48:49.531Z,47.97
2018-05-21T11:51:18.079Z,47.18
2018-05-21T11:53:46.695Z,46.27
2018-05-21T11:56:14.307Z,45.72
2018-05-21T11:58:41.839Z,45.77
2018-05-21T12:01:09.486Z,45.26
2018-05-21T12:03:38.104Z,45.05
2018-05-21T12:14:43.342Z,43.22
2018-05-21T12:17:10.921Z,42.78
2018-05-21T12:19:38.462Z,42.14
2018-05-21T12:33:36.696Z,38.99
2018-05-21T12:36:04.253Z,38.97
2018-05-21T12:38:31.902Z,39.13
2018-05-21T12:50:26.454Z,37.39
2018-05-21T12:52:57.131Z,37.13
2018-05-21T12:55:24.698Z,36.96
2018-05-21T12:57:52.508Z,36.80
2018-05-21T13:05:17.895Z,36.20
2018-05-21T13:10:18.203Z,34.48
2018-05-21T13:12:45.779Z,34.24
2018-05-21T13:15:14.193Z,34.23
2018-05-21T13:17:42.839Z,34.12
2018-05-21T13:20:33.573Z,33.52
2018-05-21T13:23:06.593Z,33.00
2018-05-21T13:25:34.478Z,32.66
2018-05-21T13:28:02.066Z,32.09
2018-05-21T13:30:29.608Z,30.99
2018-05-21T13:32:57.122Z,30.42
2018-05-21T13:35:25.707Z,30.26
2018-05-21T13:37:58.311Z,30.49
2018-05-21T13:40:41.579Z,30.80
2018-05-21T13:43:14.183Z,31.33
2018-05-21T13:45:42.544Z,31.45
2018-05-21T13:48:12.383Z,32.73
2018-05-21T13:50:39.947Z,33.96
2018-05-21T13:53:13.883Z,34.54
2018-05-21T13:55:42.331Z,35.01
2018-05-21T13:58:12.793Z,35.10
2018-05-21T14:00:44.694Z,35.55
2018-05-21T14:03:12.300Z,35.96
2018-05-21T14:05:39.874Z,36.14
2018-05-21T14:08:07.415Z,36.12
2018-05-21T14:10:35.093Z,36.36
2018-05-21T14:13:05.072Z,36.72
2018-05-21T14:15:34.518Z,36.99
2018-05-21T14:18:03.020Z,37.02
2018-05-21T14:20:31.674Z,37.08
2018-05-21T14:22:59.186Z,36.84
2018-05-21T14:25:26.806Z,36.94
2018-05-21T14:27:54.591Z,36.78
2018-05-21T14:30:22.295Z,36.94
2018-05-21T14:32:50.312Z,36.92
2018-05-21T14:35:18.659Z,36.84
2018-05-21T14:37:46.195Z,36.73
2018-05-21T14:40:13.747Z,36.56
2018-05-21T14:42:41.294Z,36.64
2018-05-21T14:45:10.381Z,36.80
2018-05-21T14:47:37.975Z,37.16
2018-05-21T14:50:06.772Z,36.99
2018-05-21T14:52:36.889Z,37.08
2018-05-21T14:55:04.419Z,37.14
2018-05-21T14:57:31.991Z,37.19
2018-05-21T14:59:59.635Z,37.22
2018-05-21T15:02:27.260Z,37.52
2018-05-21T15:08:38.387Z,37.66
2018-05-21T15:11:07.461Z,37.34
2018-05-21T15:13:35.708Z,37.19
2018-05-21T15:16:03.255Z,37.14
2018-05-21T15:18:30.819Z,36.58
2018-05-21T15:21:16.812Z,36.96
2018-05-21T15:23:46.996Z,37.71
2018-05-21T15:26:14.809Z,37.67
2018-05-21T15:28:42.384Z,37.52
2018-05-21T15:31:10.071Z,37.31
2018-05-21T15:33:37.618Z,37.06
2018-05-21T15:36:05.162Z,36.89
2018-05-21T15:44:07.151Z,36.03
2018-05-21T15:46:34.774Z,36.16
2018-05-21T15:49:02.302Z,36.04
2018-05-21T15:51:29.831Z,35.79
2018-05-21T15:53:57.456Z,35.81
2018-05-21T15:56:29.753Z,35.92
2018-05-21T15:58:59.195Z,35.88
2018-05-21T16:01:33.107Z,36.16
2018-05-21T16:04:01.773Z,36.23
2018-05-21T16:06:29.319Z,36.02
2018-05-21T16:08:56.876Z,35.81
2018-05-21T16:11:24.591Z,35.83
2018-05-21T16:13:55.980Z,35.93
2018-05-21T16:16:23.951Z,35.80
2018-05-21T16:18:51.531Z,35.28
2018-05-21T16:21:19.207Z,35.16
2018-05-21T16:23:47.803Z,34.74
2018-05-21T16:26:15.299Z,34.63
2018-05-21T16:28:42.971Z,34.29
2018-05-21T16:31:17.022Z,33.71
2018-05-21T16:33:50.175Z,33.13
2018-05-21T16:36:18.712Z,33.08
2018-05-21T16:41:25.833Z,32.78
2018-05-21T16:43:53.359Z,33.17
2018-05-21T16:46:20.887Z,33.44
2018-05-21T16:48:49.424Z,33.60
2018-05-21T16:51:17.969Z,33.72
2018-05-21T16:53:52.925Z,33.96
2018-05-21T16:56:21.508Z,34.14
2018-05-21T16:58:49.079Z,34.48
2018-05-21T17:01:16.620Z,34.83
2018-05-21T17:03:45.076Z,35.02
2018-05-21T17:06:12.716Z,34.97
2018-05-21T17:08:41.275Z,34.80
2018-05-21T17:11:10.731Z,34.42
2018-05-21T17:13:38.403Z,34.04
2018-05-21T17:16:06.821Z,33.60
2018-05-21T17:18:34.344Z,33.31
2018-05-21T17:21:02.110Z,32.89
2018-05-21T17:23:29.495Z,32.71
2018-05-21T17:26:01.074Z,32.58
2018-05-21T17:28:30.824Z,32.71
2018-05-21T17:30:58.547Z,32.75
2018-05-21T17:33:29.038Z,32.49
2018-05-21T17:35:56.595Z,32.62
2018-05-21T17:38:24.139Z,32.62
2018-05-21T17:40:51.654Z,32.61
2018-05-21T17:43:19.245Z,32.71
2018-05-21T17:46:06.065Z,32.92
2018-05-21T17:51:38.615Z,32.84
2018-05-21T17:54:06.536Z,33.01
2018-05-21T17:56:34.094Z,33.09
2018-05-21T17:59:01.640Z,32.95
2018-05-21T18:01:29.163Z,33.05
2018-05-21T18:03:57.887Z,32.96
2018-05-21T18:06:27.546Z,33.03
2018-05-21T18:08:55.160Z,32.93
2018-05-21T18:11:31.199Z,32.99
2018-05-21T18:13:58.740Z,32.93
2018-05-21T18:16:26.301Z,32.79
2018-05-21T18:18:53.836Z,32.39
2018-05-21T18:21:21.399Z,32.59
2018-05-21T18:23:49.135Z,32.40
2018-05-21T18:26:27.654Z,32.35
2018-05-21T18:28:55.305Z,32.27
2018-05-21T18:31:41.862Z,32.41
2018-05-21T18:34:09.340Z,32.06
2018-05-21T18:36:36.879Z,32.27
2018-05-21T18:39:04.527Z,32.29
2018-05-21T18:41:33.395Z,32.33
2018-05-21T18:44:05.828Z,32.10
2018-05-21T18:46:34.337Z,32.38
2018-05-21T18:49:02.872Z,32.52
2018-05-21T18:51:30.391Z,32.40
2018-05-21T18:53:57.908Z,32.64
2018-05-21T18:56:25.455Z,33.13
2018-05-21T18:58:53.067Z,33.59
2018-05-21T19:01:27.260Z,34.00
2018-05-21T19:04:01.457Z,34.48
2018-05-21T19:06:29.975Z,35.04
2018-05-21T19:11:55.939Z,36.06
2018-05-21T19:14:23.431Z,36.55
2018-05-21T19:16:50.918Z,37.03
2018-05-21T19:19:37.118Z,37.58
2018-05-21T20:04:36.158Z,45.40
2018-05-21T20:07:03.654Z,46.36
2018-05-21T20:09:31.271Z,46.82
2018-05-21T20:11:58.935Z,47.16
2018-05-21T20:14:26.712Z,47.38
2018-05-21T20:16:54.324Z,47.69
2018-05-21T20:19:22.076Z,48.69
2018-05-21T20:21:49.599Z,48.82
2018-05-21T20:24:17.072Z,49.13
2018-05-21T20:26:44.607Z,49.35
2018-05-21T20:29:12.172Z,49.48
2018-05-21T20:31:43.033Z,49.53
2018-05-21T20:34:12.339Z,49.62
2018-05-21T20:36:45.679Z,49.71
2018-05-21T20:39:13.241Z,50.24
2018-05-21T20:41:40.795Z,50.67
2018-05-21T20:44:08.355Z,51.12
2018-05-21T20:46:35.902Z,51.95
2018-05-21T20:49:03.878Z,51.50
2018-05-21T20:51:31.566Z,51.37
2018-05-21T20:53:59.401Z,51.28
2018-05-21T20:56:29.986Z,51.36
2018-05-21T20:58:57.539Z,51.80
2018-05-21T21:01:25.083Z,52.61
2018-05-21T21:03:52.660Z,52.76
2018-05-21T21:06:22.563Z,52.83
2018-05-21T21:08:50.829Z,52.85
2018-05-21T21:11:22.322Z,52.82
2018-05-21T21:13:50.969Z,52.90
2018-05-21T21:16:18.567Z,52.82
2018-05-21T21:18:46.108Z,52.68
2018-05-21T21:21:13.639Z,53.02
2018-05-21T21:23:41.387Z,53.27
2018-05-21T21:26:11.141Z,53.41
2018-05-21T21:28:39.044Z,53.34
2018-05-21T21:31:06.727Z,53.59
2018-05-21T21:33:34.460Z,53.78
2018-05-21T21:36:01.988Z,53.92
2018-05-21T21:38:29.522Z,53.97
2018-05-21T21:40:57.161Z,53.88
2018-05-21T21:43:29.216Z,53.86
2018-05-21T21:45:57.991Z,53.99
2018-05-21T21:48:25.790Z,54.13
2018-05-21T21:50:54.129Z,54.29
2018-05-21T21:53:22.329Z,54.33
2018-05-21T21:55:49.759Z,54.33
2018-05-21T21:58:17.256Z,54.40
2018-05-21T22:00:45.967Z,54.55
2018-05-21T22:03:13.870Z,54.73
2018-05-21T22:05:42.242Z,54.77
2018-05-21T22:08:17.837Z,54.83
2018-05-21T22:10:45.359Z,55.06
2018-05-21T22:13:12.908Z,55.17
2018-05-21T22:15:40.439Z,55.49
2018-05-21T22:18:09.822Z,55.88
2018-05-21T22:28:23.969Z,56.87
2018-05-21T22:30:51.496Z,56.76
2018-05-21T22:33:19.075Z,56.68
2018-05-21T22:46:04.085Z,56.67
2018-05-21T22:48:31.580Z,56.69
2018-05-21T22:50:59.194Z,56.75
2018-05-21T23:03:48.967Z,57.21
2018-05-21T23:06:16.544Z,57.26
2018-05-21T23:08:44.140Z,57.30
2018-05-21T23:13:47.310Z,57.35
2018-05-21T23:18:47.522Z,57.38
2018-05-21T23:21:15.083Z,57.55
2018-05-21T23:23:42.598Z,57.79
2018-05-21T23:26:10.119Z,57.87
2018-05-21T23:28:37.714Z,57.96
2018-05-21T23:31:05.417Z,58.12
2018-05-21T23:33:33.111Z,58.46
2018-05-21T23:36:03.470Z,58.76
2018-05-21T23:38:31.091Z,58.85
2018-05-21T23:40:58.634Z,58.85
2018-05-21T23:43:26.166Z,59.06
2018-05-21T23:48:43.402Z,59.36
2018-05-21T23:51:11.024Z,59.78
2018-05-21T23:53:38.663Z,59.92
2018-05-21T23:56:06.226Z,60.01
2018-05-21T23:58:33.759Z,60.06
